Time;durP1;ratioP1;P1;durP2;ratioP2;P2;SDS_P1;SDS_P2;PMS_P1;PMS_P2;Temp;Humidity;BMP_temperature;BMP_pressure;BME280_temperature;BME280_humidity;BME280_pressure;Samples;Min_cycle;Max_cycle;Signal;HPM_P1;HPM_P2
2023/09/14 00:00:20;;;;;;;11.07;2.88;;;;;;;;;;4999078;28;25101;-71
2023/09/14 00:02:46;;;;;;;7.95;2.70;;;;;;;;;;4993590;28;25051;-71
2023/09/14 00:05:12;;;;;;;10.88;3.28;;;;;;;;;;4992993;28;25068;-73
2023/09/14 00:07:38;;;;;;;9.80;3.85;;;;;;;;;;4993613;28;25055;-72
2023/09/14 00:10:04;;;;;;;9.25;3.13;;;;;;;;;;4986949;28;25077;-71
2023/09/14 00:12:30;;;;;;;5.55;3.30;;;;;;;;;;4990647;28;25067;-72
2023/09/14 00:14:56;;;;;;;9.23;3.75;;;;;;;;;;4988634;28;25060;-74
2023/09/14 00:17:22;;;;;;;7.32;3.47;;;;;;;;;;4990086;28;25076;-74
2023/09/14 00:19:48;;;;;;;6.93;2.83;;;;;;;;;;4991320;28;25070;-72
2023/09/14 00:22:14;;;;;;;6.63;2.83;;;;;;;;;;4988767;28;25056;-71
2023/09/14 00:24:40;;;;;;;9.15;3.10;;;;;;;;;;4991486;28;25086;-73
2023/09/14 00:27:06;;;;;;;10.40;3.55;;;;;;;;;;4993072;28;25087;-71
2023/09/14 00:29:32;;;;;;;5.97;2.85;;;;;;;;;;4993797;28;25057;-69
2023/09/14 00:31:58;;;;;;;12.20;3.08;;;;;;;;;;4992397;28;25073;-71
2023/09/14 00:34:24;;;;;;;9.13;3.03;;;;;;;;;;4990083;28;25109;-73
2023/09/14 00:36:50;;;;;;;11.88;3.30;;;;;;;;;;4998605;28;25045;-71
2023/09/14 00:39:16;;;;;;;8.95;3.38;;;;;;;;;;4994459;28;25152;-71
2023/09/14 00:41:42;;;;;;;6.45;3.47;;;;;;;;;;5008236;28;25076;-73
2023/09/14 00:44:08;;;;;;;11.70;4.28;;;;;;;;;;5006622;28;25080;-73
2023/09/14 00:46:35;;;;;;;9.55;3.55;;;;;;;;;;5003095;28;25057;-72
2023/09/14 00:49:01;;;;;;;15.27;3.88;;;;;;;;;;4994205;28;25061;-71
2023/09/14 00:51:27;;;;;;;8.45;4.03;;;;;;;;;;5022834;28;25065;-72
2023/09/14 00:53:54;;;;;;;10.68;4.00;;;;;;;;;;5017495;28;25099;-73
2023/09/14 00:56:20;;;;;;;8.95;3.15;;;;;;;;;;5011406;28;25105;-73
2023/09/14 00:58:47;;;;;;;11.75;3.67;;;;;;;;;;5004224;28;25085;-72
2023/09/14 01:01:14;;;;;;;12.85;4.07;;;;;;;;;;4999788;28;25067;-70
2023/09/14 01:03:40;;;;;;;10.65;4.60;;;;;;;;;;5000727;28;25080;-73
2023/09/14 01:06:07;;;;;;;13.23;4.10;;;;;;;;;;5003301;28;25082;-72
2023/09/14 01:08:33;;;;;;;12.27;4.32;;;;;;;;;;5002856;28;25023;-73
2023/09/14 01:10:59;;;;;;;11.00;4.03;;;;;;;;;;5000110;28;25053;-73
2023/09/14 01:13:31;;;;;;;13.48;4.03;;;;;;;;;;4995866;28;25055;-72
2023/09/14 01:15:57;;;;;;;;;;;;;;;;;;5005566;28;25014;-72
2023/09/14 01:18:30;;;;;;;8.90;3.90;;;;;;;;;;4993006;28;25086;-73
2023/09/14 01:21:15;;;;;;;9.25;3.70;;;;;;;;;;4989590;28;25061;-72
2023/09/14 01:23:46;;;;;;;10.30;4.75;;;;;;;;;;4990487;28;25064;-73
2023/09/14 01:26:12;;;;;;;13.07;5.32;;;;;;;;;;4988024;28;25053;-72
2023/09/14 01:28:38;;;;;;;9.07;3.97;;;;;;;;;;4995141;28;25055;-73
2023/09/14 01:31:04;;;;;;;15.05;4.50;;;;;;;;;;4993264;28;25055;-72
2023/09/14 01:33:31;;;;;;;11.43;4.50;;;;;;;;;;4993869;28;25063;-69
2023/09/14 01:36:03;;;;;;;15.60;4.50;;;;;;;;;;4994461;28;25067;-72
2023/09/14 01:38:30;;;;;;;10.30;4.40;;;;;;;;;;4995221;28;25126;-72
2023/09/14 01:40:57;;;;;;;12.55;4.55;;;;;;;;;;4992942;28;25069;-73
2023/09/14 01:43:23;;;;;;;10.50;4.53;;;;;;;;;;4990788;28;25059;-72
2023/09/14 01:45:50;;;;;;;12.43;4.40;;;;;;;;;;4989618;28;25098;-72
2023/09/14 01:48:16;;;;;;;10.88;4.15;;;;;;;;;;4988776;28;25183;-71
2023/09/14 01:50:43;;;;;;;8.93;4.65;;;;;;;;;;4984384;28;25096;-73
2023/09/14 01:53:09;;;;;;;7.53;4.00;;;;;;;;;;4991985;28;25054;-72
2023/09/14 01:55:35;;;;;;;10.15;4.47;;;;;;;;;;4987948;28;25065;-70
2023/09/14 01:58:01;;;;;;;10.80;4.93;;;;;;;;;;4987995;28;25075;-71
2023/09/14 02:00:27;;;;;;;11.05;4.50;;;;;;;;;;4991915;28;25081;-72
2023/09/14 02:02:53;;;;;;;16.20;4.13;;;;;;;;;;4989164;28;25079;-72
2023/09/14 02:05:19;;;;;;;13.13;5.00;;;;;;;;;;4985548;28;25062;-71
2023/09/14 02:07:45;;;;;;;10.48;3.90;;;;;;;;;;4998401;28;24734;-73
2023/09/14 02:10:11;;;;;;;9.32;4.10;;;;;;;;;;4997897;28;25058;-73
2023/09/14 02:12:37;;;;;;;12.23;4.10;;;;;;;;;;5000801;28;25048;-71
2023/09/14 02:15:04;;;;;;;12.27;4.13;;;;;;;;;;5004370;28;25078;-69
2023/09/14 02:17:30;;;;;;;8.95;4.03;;;;;;;;;;5005885;28;25053;-71
2023/09/14 02:19:58;;;;;;;8.65;3.83;;;;;;;;;;5002226;28;25063;-71
2023/09/14 02:22:24;;;;;;;12.77;4.45;;;;;;;;;;5000500;28;25101;-74
2023/09/14 02:24:50;;;;;;;8.15;3.35;;;;;;;;;;4993278;28;25142;-71
2023/09/14 02:27:16;;;;;;;10.77;3.70;;;;;;;;;;4997205;28;25075;-73
2023/09/14 02:29:42;;;;;;;7.10;3.88;;;;;;;;;;4998720;28;25064;-73
2023/09/14 02:32:08;;;;;;;8.35;3.85;;;;;;;;;;4998851;28;25075;-72
2023/09/14 02:34:34;;;;;;;10.68;4.18;;;;;;;;;;4992796;28;25065;-73
2023/09/14 02:37:02;;;;;;;9.80;3.53;;;;;;;;;;4996017;28;25061;-72
2023/09/14 02:39:28;;;;;;;10.55;3.88;;;;;;;;;;4995919;28;25060;-72
2023/09/14 02:41:54;;;;;;;15.23;4.90;;;;;;;;;;4999292;28;25077;-72
2023/09/14 02:44:20;;;;;;;13.65;4.57;;;;;;;;;;4997279;28;25068;-73
2023/09/14 02:46:46;;;;;;;13.77;4.35;;;;;;;;;;5000371;28;25068;-73
2023/09/14 02:49:12;;;;;;;13.77;5.20;;;;;;;;;;5010363;28;25053;-70
2023/09/14 02:51:38;;;;;;;9.70;4.22;;;;;;;;;;5007542;28;25076;-72
2023/09/14 02:54:04;;;;;;;14.02;4.88;;;;;;;;;;4998586;28;25079;-70
2023/09/14 02:56:31;;;;;;;10.93;4.32;;;;;;;;;;4995744;28;25213;-70
2023/09/14 02:58:57;;;;;;;13.15;4.57;;;;;;;;;;4996714;28;25095;-72
2023/09/14 03:01:23;;;;;;;11.02;4.60;;;;;;;;;;4996944;28;25086;-72
2023/09/14 03:03:49;;;;;;;15.68;5.55;;;;;;;;;;5000142;28;25100;-72
2023/09/14 03:06:15;;;;;;;8.32;4.10;;;;;;;;;;4995933;28;25084;-70
2023/09/14 03:08:41;;;;;;;9.95;4.43;;;;;;;;;;4995633;28;25081;-72
2023/09/14 03:11:08;;;;;;;9.13;4.00;;;;;;;;;;4999261;28;25076;-72
2023/09/14 03:13:34;;;;;;;11.15;4.20;;;;;;;;;;4993917;28;25086;-72
2023/09/14 03:16:00;;;;;;;13.73;4.60;;;;;;;;;;4990357;28;25108;-73
2023/09/14 03:18:26;;;;;;;9.70;4.63;;;;;;;;;;4993493;28;25118;-73
2023/09/14 03:20:53;;;;;;;10.70;4.13;;;;;;;;;;4993218;28;25072;-73
2023/09/14 03:23:19;;;;;;;12.98;4.78;;;;;;;;;;4990212;28;25051;-71
2023/09/14 03:25:45;;;;;;;13.48;5.15;;;;;;;;;;4992396;28;25148;-72
2023/09/14 03:28:12;;;;;;;12.88;5.25;;;;;;;;;;4995364;28;25088;-71
2023/09/14 03:30:38;;;;;;;12.32;4.63;;;;;;;;;;4988742;28;25073;-74
2023/09/14 03:33:04;;;;;;;11.90;4.38;;;;;;;;;;4996120;28;25145;-71
2023/09/14 03:35:30;;;;;;;13.60;4.85;;;;;;;;;;4994639;28;25142;-71
2023/09/14 03:37:56;;;;;;;13.13;4.70;;;;;;;;;;4987275;28;25086;-73
2023/09/14 03:40:22;;;;;;;12.85;5.15;;;;;;;;;;4993574;28;25060;-72
2023/09/14 03:42:49;;;;;;;9.82;4.40;;;;;;;;;;4999469;28;25047;-74
2023/09/14 03:45:15;;;;;;;8.63;5.05;;;;;;;;;;4990112;28;25059;-72
2023/09/14 03:47:41;;;;;;;8.73;4.50;;;;;;;;;;4990867;28;25076;-73
2023/09/14 03:50:09;;;;;;;12.10;4.93;;;;;;;;;;4989926;28;25080;-71
2023/09/14 03:52:36;;;;;;;9.30;4.75;;;;;;;;;;4996072;28;25052;-72
2023/09/14 03:55:02;;;;;;;9.15;4.47;;;;;;;;;;4993546;28;25079;-72
2023/09/14 03:57:29;;;;;;;11.75;5.10;;;;;;;;;;4994162;28;25162;-72
2023/09/14 03:59:55;;;;;;;13.75;5.55;;;;;;;;;;4995990;28;25081;-72
2023/09/14 04:02:21;;;;;;;6.95;4.80;;;;;;;;;;4990779;28;25056;-71
2023/09/14 04:04:47;;;;;;;17.13;4.97;;;;;;;;;;4995173;28;25059;-72
2023/09/14 04:07:13;;;;;;;13.20;5.03;;;;;;;;;;4991582;28;25074;-71
2023/09/14 04:09:41;;;;;;;9.45;4.45;;;;;;;;;;4997194;28;25048;-71
2023/09/14 04:12:07;;;;;;;10.10;4.82;;;;;;;;;;4991107;28;25059;-71
2023/09/14 04:14:33;;;;;;;12.43;5.55;;;;;;;;;;4991310;28;25094;-72
2023/09/14 04:17:00;;;;;;;12.25;5.80;;;;;;;;;;4997270;28;25150;-72
2023/09/14 04:19:27;;;;;;;10.43;4.93;;;;;;;;;;4994963;28;25069;-73
2023/09/14 04:21:53;;;;;;;10.68;5.63;;;;;;;;;;4987669;28;25064;-71
2023/09/14 04:24:19;;;;;;;10.20;5.10;;;;;;;;;;4991222;28;25165;-71
2023/09/14 04:26:45;;;;;;;11.88;5.45;;;;;;;;;;4989799;28;25077;-70
2023/09/14 04:29:11;;;;;;;17.00;5.40;;;;;;;;;;4990160;28;25106;-71
2023/09/14 04:31:38;;;;;;;17.48;5.90;;;;;;;;;;4989166;28;25118;-72
2023/09/14 04:34:04;;;;;;;24.38;6.22;;;;;;;;;;4989955;28;25056;-72
2023/09/14 04:36:31;;;;;;;11.60;4.90;;;;;;;;;;4990122;28;25105;-72
2023/09/14 04:38:57;;;;;;;15.68;6.32;;;;;;;;;;4989173;28;25153;-73
2023/09/14 04:41:23;;;;;;;12.98;6.18;;;;;;;;;;4991302;28;25051;-74
2023/09/14 04:43:49;;;;;;;12.30;6.28;;;;;;;;;;4993301;28;25073;-72
2023/09/14 04:46:15;;;;;;;11.90;6.20;;;;;;;;;;4990280;28;25064;-72
2023/09/14 04:48:42;;;;;;;13.32;6.00;;;;;;;;;;4996262;28;25063;-73
2023/09/14 04:51:08;;;;;;;12.98;6.05;;;;;;;;;;4990503;28;25060;-71
2023/09/14 04:53:34;;;;;;;17.25;6.57;;;;;;;;;;4987662;28;25147;-71
2023/09/14 04:56:00;;;;;;;15.48;6.78;;;;;;;;;;4993182;28;25073;-71
2023/09/14 04:58:26;;;;;;;13.02;6.40;;;;;;;;;;4989347;28;25081;-73
2023/09/14 05:00:52;;;;;;;17.30;6.93;;;;;;;;;;4987705;28;25051;-72
2023/09/14 05:03:19;;;;;;;13.98;6.53;;;;;;;;;;4990575;28;25061;-71
2023/09/14 05:05:50;;;;;;;18.30;7.40;;;;;;;;;;4993066;28;25102;-71
2023/09/14 05:08:16;;;;;;;15.55;7.10;;;;;;;;;;4990018;28;25134;-73
2023/09/14 05:10:42;;;;;;;16.63;7.30;;;;;;;;;;4991759;28;25073;-73
2023/09/14 05:13:08;;;;;;;17.27;7.20;;;;;;;;;;4986277;28;25133;-74
2023/09/14 05:15:34;;;;;;;15.40;8.13;;;;;;;;;;4990843;28;25097;-70
2023/09/14 05:18:00;;;;;;;14.18;7.20;;;;;;;;;;4989781;28;25058;-72
2023/09/14 05:20:27;;;;;;;18.23;7.32;;;;;;;;;;4988206;28;25131;-72
2023/09/14 05:22:53;;;;;;;13.07;7.30;;;;;;;;;;4990180;28;25070;-73
2023/09/14 05:25:20;;;;;;;18.88;7.70;;;;;;;;;;4985648;28;25078;-71
2023/09/14 05:27:46;;;;;;;14.52;8.70;;;;;;;;;;4981942;28;25057;-71
2023/09/14 05:30:12;;;;;;;17.10;8.10;;;;;;;;;;4983750;28;25136;-72
2023/09/14 05:32:39;;;;;;;14.13;7.35;;;;;;;;;;4980379;28;25063;-69
2023/09/14 05:35:06;;;;;;;15.57;7.63;;;;;;;;;;4980187;28;25089;-71
2023/09/14 05:37:33;;;;;;;16.75;7.38;;;;;;;;;;4983345;28;25068;-71
2023/09/14 05:40:00;;;;;;;15.70;7.30;;;;;;;;;;4983334;28;25097;-72
2023/09/14 05:42:26;;;;;;;15.57;7.47;;;;;;;;;;4977624;28;25106;-72
2023/09/14 05:44:52;;;;;;;15.82;6.72;;;;;;;;;;4981392;28;25063;-72
2023/09/14 05:47:18;;;;;;;12.65;6.47;;;;;;;;;;4985836;28;25065;-73
2023/09/14 05:49:45;;;;;;;13.68;7.00;;;;;;;;;;4985983;28;25068;-73
2023/09/14 05:52:11;;;;;;;16.92;7.07;;;;;;;;;;4981993;28;25163;-71
2023/09/14 05:54:37;;;;;;;16.38;6.80;;;;;;;;;;4985535;28;25074;-71
2023/09/14 05:57:03;;;;;;;16.48;6.88;;;;;;;;;;4986191;28;25088;-72
2023/09/14 05:59:29;;;;;;;21.35;8.05;;;;;;;;;;4985305;28;25094;-71
2023/09/14 06:01:55;;;;;;;16.20;7.20;;;;;;;;;;4985844;28;25088;-73
2023/09/14 06:04:21;;;;;;;14.57;6.55;;;;;;;;;;4984359;28;25102;-69
2023/09/14 06:06:47;;;;;;;20.50;6.38;;;;;;;;;;4973195;28;25122;-73
2023/09/14 06:09:14;;;;;;;14.63;6.72;;;;;;;;;;4985861;28;25125;-71
2023/09/14 06:11:41;;;;;;;21.55;6.57;;;;;;;;;;4982600;28;25046;-71
2023/09/14 06:14:07;;;;;;;14.85;6.93;;;;;;;;;;4989360;28;25056;-70
2023/09/14 06:16:33;;;;;;;14.40;6.68;;;;;;;;;;4991865;28;25079;-72
2023/09/14 06:18:59;;;;;;;17.67;7.18;;;;;;;;;;4992878;28;25061;-71
2023/09/14 06:21:25;;;;;;;14.88;5.90;;;;;;;;;;4989233;28;25082;-72
2023/09/14 06:23:51;;;;;;;23.33;7.40;;;;;;;;;;4978277;28;25149;-72
2023/09/14 06:26:17;;;;;;;12.77;6.55;;;;;;;;;;4978642;28;25134;-72
2023/09/14 06:28:43;;;;;;;17.50;7.45;;;;;;;;;;4984569;28;25054;-71
2023/09/14 06:31:09;;;;;;;14.27;6.57;;;;;;;;;;4975010;28;25073;-72
2023/09/14 06:33:36;;;;;;;18.92;7.38;;;;;;;;;;4979179;28;25094;-71
2023/09/14 06:36:02;;;;;;;17.60;7.50;;;;;;;;;;4983814;28;25061;-71
2023/09/14 06:38:28;;;;;;;19.90;7.32;;;;;;;;;;4985073;28;25064;-71
2023/09/14 06:40:55;;;;;;;18.35;7.63;;;;;;;;;;4980076;28;25082;-73
2023/09/14 06:43:22;;;;;;;15.65;7.68;;;;;;;;;;4982562;28;25137;-73
2023/09/14 06:45:48;;;;;;;16.83;6.90;;;;;;;;;;4986057;28;25062;-72
2023/09/14 06:48:14;;;;;;;17.50;7.07;;;;;;;;;;4983108;28;25066;-72
2023/09/14 06:50:40;;;;;;;12.98;7.15;;;;;;;;;;4982473;28;25061;-73
2023/09/14 06:53:06;;;;;;;15.88;6.50;;;;;;;;;;4989967;28;25061;-69
2023/09/14 06:55:32;;;;;;;14.50;7.20;;;;;;;;;;4994326;28;25125;-70
2023/09/14 06:57:58;;;;;;;19.85;7.03;;;;;;;;;;4989651;28;25128;-73
2023/09/14 07:00:24;;;;;;;15.85;6.38;;;;;;;;;;4997423;28;25125;-72
2023/09/14 07:02:52;;;;;;;14.82;6.60;;;;;;;;;;4989331;28;25065;-73
2023/09/14 07:05:18;;;;;;;16.13;7.05;;;;;;;;;;4992008;28;25057;-70
2023/09/14 07:07:44;;;;;;;19.55;6.97;;;;;;;;;;4990152;28;25089;-71
2023/09/14 07:10:10;;;;;;;13.50;7.70;;;;;;;;;;4990234;28;25090;-69
2023/09/14 07:12:36;;;;;;;12.57;6.57;;;;;;;;;;4992366;28;25109;-71
2023/09/14 07:15:03;;;;;;;15.98;7.30;;;;;;;;;;4992096;28;25130;-72
2023/09/14 07:17:29;;;;;;;17.63;7.50;;;;;;;;;;4990740;28;25076;-73
2023/09/14 07:19:55;;;;;;;17.00;7.00;;;;;;;;;;4984499;28;25081;-73
2023/09/14 07:22:21;;;;;;;17.00;7.03;;;;;;;;;;4986819;28;25063;-71
2023/09/14 07:24:47;;;;;;;15.93;6.53;;;;;;;;;;4983642;28;25062;-71
2023/09/14 07:27:14;;;;;;;15.38;5.88;;;;;;;;;;4999550;28;25054;-73
2023/09/14 07:29:40;;;;;;;18.15;7.05;;;;;;;;;;4995255;28;25057;-71
2023/09/14 07:32:06;;;;;;;12.10;6.20;;;;;;;;;;4991043;28;25064;-71
2023/09/14 07:34:32;;;;;;;12.63;6.55;;;;;;;;;;4992763;28;25114;-72
2023/09/14 07:36:58;;;;;;;14.05;6.07;;;;;;;;;;4995664;28;25060;-72
2023/09/14 07:39:24;;;;;;;14.52;6.90;;;;;;;;;;4998180;28;25052;-72
2023/09/14 07:41:57;;;;;;;14.15;7.30;;;;;;;;;;4998398;28;25076;-70
2023/09/14 07:44:23;;;;;;;17.73;7.45;;;;;;;;;;4994126;28;25072;-71
2023/09/14 07:46:49;;;;;;;18.38;8.10;;;;;;;;;;4988723;28;25074;-72
2023/09/14 07:49:15;;;;;;;14.73;7.05;;;;;;;;;;4987533;28;25072;-73
2023/09/14 07:51:41;;;;;;;17.92;8.23;;;;;;;;;;4987930;28;25100;-72
2023/09/14 07:54:07;;;;;;;23.00;7.57;;;;;;;;;;4990789;28;25078;-74
2023/09/14 07:56:33;;;;;;;18.75;8.70;;;;;;;;;;4993253;28;25073;-73
2023/09/14 07:58:59;;;;;;;20.85;9.10;;;;;;;;;;4991485;28;25057;-74
2023/09/14 08:01:25;;;;;;;19.10;7.68;;;;;;;;;;4993279;28;25049;-72
2023/09/14 08:03:51;;;;;;;22.58;8.90;;;;;;;;;;4992819;28;25096;-70
2023/09/14 08:06:18;;;;;;;21.10;8.73;;;;;;;;;;4988393;28;25082;-72
2023/09/14 08:08:45;;;;;;;17.63;7.70;;;;;;;;;;4994139;28;25060;-74
2023/09/14 08:11:11;;;;;;;15.82;7.78;;;;;;;;;;4988649;28;25080;-72
2023/09/14 08:13:37;;;;;;;15.65;7.85;;;;;;;;;;4987556;28;25112;-74
2023/09/14 08:16:07;;;;;;;18.67;7.78;;;;;;;;;;4988190;28;25046;-74
2023/09/14 08:18:33;;;;;;;16.08;7.18;;;;;;;;;;4986789;28;25079;-71
2023/09/14 08:20:58;;;;;;;18.00;8.68;;;;;;;;;;4987016;28;25058;-74
2023/09/14 08:23:24;;;;;;;20.83;8.57;;;;;;;;;;4990904;28;25057;-74
2023/09/14 08:25:50;;;;;;;16.45;7.85;;;;;;;;;;4988505;28;25079;-72
2023/09/14 08:28:17;;;;;;;16.98;7.65;;;;;;;;;;4988554;28;25066;-76
2023/09/14 08:30:44;;;;;;;18.73;8.27;;;;;;;;;;4990278;28;25082;-70
2023/09/14 08:33:13;;;;;;;17.00;7.70;;;;;;;;;;4992231;28;25174;-70
2023/09/14 08:35:39;;;;;;;13.20;5.78;;;;;;;;;;4992639;28;25075;-73
2023/09/14 08:38:06;;;;;;;16.40;6.18;;;;;;;;;;4996114;28;25057;-73
2023/09/14 08:40:32;;;;;;;13.65;6.40;;;;;;;;;;4989634;28;25095;-72
2023/09/14 08:43:00;;;;;;;14.30;7.53;;;;;;;;;;4988886;28;25094;-71
2023/09/14 08:45:26;;;;;;;9.82;5.70;;;;;;;;;;4998799;28;25094;-72
2023/09/14 08:47:53;;;;;;;17.00;7.03;;;;;;;;;;4984351;28;25094;-71
2023/09/14 08:50:19;;;;;;;17.27;6.93;;;;;;;;;;4983953;28;25054;-74
2023/09/14 08:52:47;;;;;;;15.65;6.47;;;;;;;;;;4979825;28;25072;-71
2023/09/14 08:55:16;;;;;;;13.75;5.75;;;;;;;;;;4986860;28;25099;-72
2023/09/14 08:57:44;;;;;;;15.65;6.25;;;;;;;;;;4992147;28;25046;-72
2023/09/14 09:00:17;;;;;;;12.52;6.90;;;;;;;;;;4991376;28;25077;-72
2023/09/14 09:02:47;;;;;;;11.23;6.32;;;;;;;;;;4993348;28;25059;-73
2023/09/14 09:05:14;;;;;;;13.15;5.13;;;;;;;;;;4997179;28;25082;-75
2023/09/14 09:07:41;;;;;;;10.63;5.38;;;;;;;;;;4997663;28;25122;-72
2023/09/14 09:10:27;;;;;;;12.10;5.72;;;;;;;;;;4996680;28;25092;-73
2023/09/14 09:12:55;;;;;;;14.25;6.30;;;;;;;;;;4997139;28;25080;-72
2023/09/14 09:15:24;;;;;;;14.57;6.53;;;;;;;;;;4996252;28;25070;-73
2023/09/14 09:17:53;;;;;;;7.55;5.30;;;;;;;;;;4992434;28;25059;-72
2023/09/14 09:20:22;;;;;;;13.95;5.43;;;;;;;;;;4991903;28;25069;-71
2023/09/14 09:22:49;;;;;;;8.75;4.57;;;;;;;;;;4991873;28;25064;-74
2023/09/14 09:25:15;;;;;;;13.25;5.13;;;;;;;;;;4989811;28;25072;-72
2023/09/14 09:27:41;;;;;;;7.80;4.32;;;;;;;;;;4988614;28;25060;-72
2023/09/14 09:30:11;;;;;;;10.95;4.97;;;;;;;;;;4985806;28;25067;-72
2023/09/14 09:32:42;;;;;;;10.85;5.32;;;;;;;;;;4989157;28;25094;-72
2023/09/14 09:35:17;;;;;;;11.98;6.10;;;;;;;;;;4991531;28;25103;-74
2023/09/14 09:37:43;;;;;;;12.90;6.28;;;;;;;;;;4995850;28;25064;-71
2023/09/14 09:40:16;;;;;;;9.75;5.80;;;;;;;;;;4999906;28;25056;-72
2023/09/14 09:42:42;;;;;;;15.13;5.78;;;;;;;;;;4998594;28;25570;-71
2023/09/14 09:45:09;;;;;;;10.13;6.00;;;;;;;;;;4996403;28;25144;-70
2023/09/14 09:47:38;;;;;;;13.43;5.72;;;;;;;;;;4998056;28;25076;-70
2023/09/14 09:50:08;;;;;;;11.75;5.57;;;;;;;;;;4993564;28;25054;-71
2023/09/14 09:52:34;;;;;;;12.60;5.95;;;;;;;;;;5000961;28;25083;-72
2023/09/14 09:55:00;;;;;;;12.70;6.07;;;;;;;;;;4997096;28;25060;-72
2023/09/14 09:57:32;;;;;;;15.55;6.72;;;;;;;;;;4999691;28;25065;-75
2023/09/14 09:59:58;;;;;;;10.60;6.00;;;;;;;;;;4995238;28;25074;-72
2023/09/14 10:02:31;;;;;;;11.55;5.90;;;;;;;;;;4999838;28;25094;-71
2023/09/14 10:04:58;;;;;;;9.18;5.43;;;;;;;;;;4994521;28;25055;-72
2023/09/14 10:07:24;;;;;;;12.13;6.07;;;;;;;;;;4992773;28;25064;-72
2023/09/14 10:09:54;;;;;;;16.23;6.68;;;;;;;;;;4996901;28;25058;-73
2023/09/14 10:12:27;;;;;;;7.78;4.55;;;;;;;;;;4999689;28;25086;-71
2023/09/14 10:14:54;;;;;;;13.38;5.93;;;;;;;;;;4998220;28;25050;-73
2023/09/14 10:17:24;;;;;;;11.95;5.57;;;;;;;;;;5007380;28;25081;-73
2023/09/14 10:19:51;;;;;;;13.45;5.72;;;;;;;;;;5002581;28;25103;-72
2023/09/14 10:22:18;;;;;;;9.48;5.28;;;;;;;;;;5009053;28;25067;-71
2023/09/14 10:24:44;;;;;;;13.88;5.95;;;;;;;;;;5009308;28;25049;-74
2023/09/14 10:27:11;;;;;;;12.52;5.50;;;;;;;;;;5004827;28;25086;-72
2023/09/14 10:29:41;;;;;;;11.88;5.43;;;;;;;;;;5012578;28;25101;-72
2023/09/14 10:32:09;;;;;;;9.15;4.97;;;;;;;;;;5013592;28;25074;-72
2023/09/14 10:34:36;;;;;;;12.13;5.40;;;;;;;;;;5003379;28;25102;-73
2023/09/14 10:37:03;;;;;;;9.30;4.72;;;;;;;;;;5003533;28;25110;-72
2023/09/14 10:39:29;;;;;;;9.18;3.90;;;;;;;;;;5002447;28;25066;-71
2023/09/14 10:41:55;;;;;;;11.25;5.93;;;;;;;;;;5001083;28;25070;-74
2023/09/14 10:44:22;;;;;;;11.35;5.53;;;;;;;;;;4997665;28;25055;-72
2023/09/14 10:46:52;;;;;;;12.18;5.57;;;;;;;;;;5003010;28;25125;-73
2023/09/14 10:49:17;;;;;;;11.35;5.30;;;;;;;;;;4993490;28;25142;-70
2023/09/14 10:51:45;;;;;;;11.15;5.65;;;;;;;;;;4987129;28;25058;-70
2023/09/14 10:54:11;;;;;;;9.48;5.13;;;;;;;;;;4991177;28;25061;-70
2023/09/14 10:56:37;;;;;;;12.07;7.07;;;;;;;;;;4990132;28;25080;-74
2023/09/14 10:59:09;;;;;;;12.15;6.25;;;;;;;;;;4986473;28;25059;-71
2023/09/14 11:01:46;;;;;;;13.73;5.70;;;;;;;;;;4991378;28;25054;-74
2023/09/14 11:04:13;;;;;;;11.77;5.25;;;;;;;;;;4990359;28;25056;-72
2023/09/14 11:06:47;;;;;;;12.75;5.57;;;;;;;;;;4989317;28;25062;-71
2023/09/14 11:09:14;;;;;;;10.15;4.43;;;;;;;;;;4990377;28;25065;-72
2023/09/14 11:11:44;;;;;;;8.38;4.00;;;;;;;;;;4989712;28;25057;-74
2023/09/14 11:14:11;;;;;;;9.18;4.43;;;;;;;;;;4983823;28;25064;-72
2023/09/14 11:16:46;;;;;;;8.30;4.32;;;;;;;;;;4995596;28;25090;-72
2023/09/14 11:19:32;;;;;;;12.27;5.05;;;;;;;;;;4987225;28;25099;-71
2023/09/14 11:22:03;;;;;;;10.48;4.85;;;;;;;;;;4989685;28;25070;-72
2023/09/14 11:24:33;;;;;;;10.02;4.35;;;;;;;;;;4989017;28;25054;-73
2023/09/14 11:26:59;;;;;;;9.65;4.65;;;;;;;;;;4987428;28;25130;-71
2023/09/14 11:29:26;;;;;;;8.75;4.53;;;;;;;;;;4986397;28;25074;-72
2023/09/14 11:31:56;;;;;;;11.38;4.65;;;;;;;;;;4990079;28;25173;-72
2023/09/14 11:34:24;;;;;;;7.47;4.15;;;;;;;;;;4986587;28;25172;-74
2023/09/14 11:36:52;;;;;;;11.32;4.07;;;;;;;;;;4990641;28;25175;-72
2023/09/14 11:39:19;;;;;;;5.97;3.58;;;;;;;;;;4989141;28;25063;-72
2023/09/14 11:41:48;;;;;;;6.43;3.45;;;;;;;;;;4984561;28;25060;-71
2023/09/14 11:44:15;;;;;;;7.70;3.63;;;;;;;;;;4994233;28;25063;-74
2023/09/14 11:46:41;;;;;;;6.07;3.38;;;;;;;;;;4984057;28;25092;-72
2023/09/14 11:49:08;;;;;;;9.95;3.10;;;;;;;;;;4987319;28;25060;-73
2023/09/14 11:51:33;;;;;;;7.80;3.33;;;;;;;;;;4990616;28;25154;-72
2023/09/14 11:54:00;;;;;;;6.45;3.15;;;;;;;;;;4989005;28;25091;-71
2023/09/14 11:56:33;;;;;;;7.95;3.58;;;;;;;;;;4985807;28;25056;-73
2023/09/14 11:59:00;;;;;;;8.30;3.58;;;;;;;;;;4987368;28;25140;-70
2023/09/14 12:01:32;;;;;;;7.18;2.95;;;;;;;;;;4989443;28;25092;-73
2023/09/14 12:03:59;;;;;;;10.27;3.55;;;;;;;;;;4988449;28;25097;-72
2023/09/14 12:06:25;;;;;;;7.32;3.20;;;;;;;;;;4987780;28;25084;-73
2023/09/14 12:08:51;;;;;;;4.93;2.97;;;;;;;;;;4992649;28;25129;-73
2023/09/14 12:11:18;;;;;;;4.95;2.70;;;;;;;;;;4989517;28;25132;-71
2023/09/14 12:13:51;;;;;;;10.63;3.15;;;;;;;;;;4988521;28;25071;-72
2023/09/14 12:16:21;;;;;;;4.75;2.63;;;;;;;;;;4988669;28;25058;-73
2023/09/14 12:18:47;;;;;;;8.45;3.25;;;;;;;;;;4989143;28;25079;-71
2023/09/14 12:21:14;;;;;;;6.72;3.13;;;;;;;;;;4987156;28;25076;-71
2023/09/14 12:23:40;;;;;;;6.55;3.10;;;;;;;;;;4991404;28;25056;-73
2023/09/14 12:26:07;;;;;;;5.20;2.95;;;;;;;;;;4988771;28;25078;-72
2023/09/14 12:28:34;;;;;;;6.78;2.97;;;;;;;;;;4992153;28;25073;-73
2023/09/14 12:31:00;;;;;;;6.45;3.22;;;;;;;;;;4985768;28;25090;-73
2023/09/14 12:33:26;;;;;;;4.85;3.40;;;;;;;;;;4985673;28;25058;-73
2023/09/14 12:35:52;;;;;;;4.13;2.58;;;;;;;;;;4988260;28;25072;-73
2023/09/14 12:38:18;;;;;;;6.60;3.10;;;;;;;;;;4990359;28;25060;-72
2023/09/14 12:40:44;;;;;;;4.28;2.88;;;;;;;;;;4986103;28;25105;-72
2023/09/14 12:43:11;;;;;;;7.35;3.13;;;;;;;;;;4984389;28;25076;-74
2023/09/14 12:45:37;;;;;;;4.57;2.80;;;;;;;;;;4982460;28;25261;-72
2023/09/14 12:48:04;;;;;;;4.32;2.33;;;;;;;;;;4989035;28;25083;-72
2023/09/14 12:50:30;;;;;;;8.15;3.53;;;;;;;;;;4988931;28;25081;-74
2023/09/14 12:52:57;;;;;;;6.85;3.20;;;;;;;;;;4990999;28;25099;-76
2023/09/14 12:55:25;;;;;;;5.63;2.88;;;;;;;;;;4986173;28;25069;-73
2023/09/14 12:57:51;;;;;;;5.82;3.08;;;;;;;;;;4988656;28;25165;-72
2023/09/14 13:00:18;;;;;;;4.88;2.90;;;;;;;;;;4987090;28;25049;-72
2023/09/14 13:02:45;;;;;;;6.68;3.42;;;;;;;;;;4990508;28;25055;-74
2023/09/14 13:05:14;;;;;;;9.95;2.90;;;;;;;;;;4987064;28;25085;-73
2023/09/14 13:07:50;;;;;;;6.07;2.83;;;;;;;;;;4995870;28;25063;-72
2023/09/14 13:10:23;;;;;;;5.13;2.33;;;;;;;;;;4992938;28;25100;-72
2023/09/14 13:12:52;;;;;;;3.90;2.50;;;;;;;;;;4995156;28;25054;-73
2023/09/14 13:15:19;;;;;;;6.90;2.83;;;;;;;;;;4988555;28;25066;-72
2023/09/14 13:17:45;;;;;;;6.55;2.80;;;;;;;;;;4985876;28;25048;-73
2023/09/14 13:20:11;;;;;;;4.88;2.08;;;;;;;;;;4985143;28;25069;-73
2023/09/14 13:22:37;;;;;;;7.40;2.45;;;;;;;;;;4987302;28;25060;-74
2023/09/14 13:25:04;;;;;;;7.15;2.45;;;;;;;;;;4986041;28;25052;-73
2023/09/14 13:27:34;;;;;;;4.88;2.65;;;;;;;;;;4989556;28;25154;-73
2023/09/14 13:30:00;;;;;;;5.10;3.08;;;;;;;;;;4989348;28;25061;-73
2023/09/14 13:32:26;;;;;;;8.15;3.35;;;;;;;;;;4989884;28;25149;-71
2023/09/14 13:34:52;;;;;;;5.90;2.67;;;;;;;;;;4988470;28;25060;-73
2023/09/14 13:37:18;;;;;;;5.53;2.83;;;;;;;;;;4991846;28;25186;-72
2023/09/14 13:39:43;;;;;;;5.63;2.17;;;;;;;;;;4985086;28;25082;-73
2023/09/14 13:42:09;;;;;;;4.90;2.45;;;;;;;;;;4986283;28;25077;-72
2023/09/14 13:44:36;;;;;;;5.30;2.70;;;;;;;;;;4992014;28;25075;-74
2023/09/14 13:47:02;;;;;;;5.95;2.85;;;;;;;;;;4988253;28;25076;-74
2023/09/14 13:49:29;;;;;;;6.15;2.50;;;;;;;;;;4990671;28;25107;-72
2023/09/14 13:51:55;;;;;;;7.47;3.30;;;;;;;;;;4987966;28;25125;-75
2023/09/14 13:54:21;;;;;;;4.50;2.53;;;;;;;;;;4991997;28;25090;-74
2023/09/14 13:56:47;;;;;;;7.90;2.40;;;;;;;;;;4993784;28;25077;-71
2023/09/14 13:59:13;;;;;;;6.00;2.50;;;;;;;;;;4991063;28;25057;-73
2023/09/14 14:01:39;;;;;;;5.00;2.78;;;;;;;;;;4991024;28;25173;-73
2023/09/14 14:04:05;;;;;;;3.20;2.50;;;;;;;;;;4988736;28;25054;-71
2023/09/14 14:06:31;;;;;;;10.18;2.88;;;;;;;;;;4988930;28;25116;-72
2023/09/14 14:08:57;;;;;;;4.57;2.45;;;;;;;;;;4986761;28;25108;-73
2023/09/14 14:11:23;;;;;;;5.95;2.78;;;;;;;;;;4985306;28;25119;-72
2023/09/14 14:13:49;;;;;;;8.27;2.95;;;;;;;;;;4985127;28;25091;-73
2023/09/14 14:16:15;;;;;;;9.52;3.78;;;;;;;;;;4986153;28;25189;-73
2023/09/14 14:18:41;;;;;;;9.45;2.58;;;;;;;;;;4987992;28;25078;-73
2023/09/14 14:21:07;;;;;;;6.80;3.28;;;;;;;;;;4989467;28;25071;-73
2023/09/14 14:23:33;;;;;;;9.45;3.28;;;;;;;;;;4991689;28;25078;-70
2023/09/14 14:25:59;;;;;;;6.25;2.55;;;;;;;;;;4988484;28;25096;-73
2023/09/14 14:28:27;;;;;;;4.45;2.47;;;;;;;;;;4986632;28;25164;-73
2023/09/14 14:30:53;;;;;;;4.72;2.72;;;;;;;;;;4984558;28;25110;-72
2023/09/14 14:33:19;;;;;;;6.68;2.80;;;;;;;;;;4990755;28;25041;-72